TimePST,TemperatureF,Dew PointF,Humidity,Sea Level PressureIn,VisibilityMPH,Wind Direction,Wind SpeedMPH,Gust SpeedMPH,PrecipitationIn,Events,Conditions,WindDirDegrees,DateUTC
12:56 AM,35.1,32.0,89,30.14,10.0,Calm,Calm,-,N/A,,Overcast,0,2013-02-09 08:56:00
1:56 AM,36.0,30.9,82,30.14,10.0,Calm,Calm,-,N/A,,Overcast,0,2013-02-09 09:56:00
2:56 AM,36.0,32.0,86,30.13,10.0,Calm,Calm,-,N/A,,Overcast,0,2013-02-09 10:56:00
3:56 AM,35.1,30.9,85,30.12,10.0,Calm,Calm,-,N/A,,Overcast,0,2013-02-09 11:56:00
4:56 AM,33.1,30.0,89,30.13,10.0,Calm,Calm,-,N/A,,Clear,0,2013-02-09 12:56:00
5:56 AM,32.0,30.0,92,30.13,10.0,Calm,Calm,-,N/A,,Clear,0,2013-02-09 13:56:00
6:56 AM,30.0,28.0,92,30.14,10.0,Calm,Calm,-,N/A,,Clear,0,2013-02-09 14:56:00
7:56 AM,32.0,28.9,88,30.15,10.0,Calm,Calm,-,N/A,,Mostly Cloudy,0,2013-02-09 15:56:00
8:03 AM,32.0,28.4,87,30.11,10.0,Calm,Calm,-,N/A,,Scattered Clouds,0,2013-02-09 16:03:00
8:56 AM,33.1,30.0,89,30.16,10.0,Calm,Calm,-,N/A,,Mostly Cloudy,0,2013-02-09 16:56:00
9:56 AM,34.0,28.9,82,30.15,10.0,Calm,Calm,-,N/A,,Overcast,0,2013-02-09 17:56:00
10:56 AM,36.0,30.0,79,30.14,10.0,Calm,Calm,-,N/A,,Overcast,0,2013-02-09 18:56:00
11:56 AM,37.0,32.0,82,30.11,10.0,Calm,Calm,-,N/A,,Scattered Clouds,0,2013-02-09 19:56:00
12:56 PM,39.9,33.1,77,30.10,10.0,Calm,Calm,-,N/A,,Clear,0,2013-02-09 20:56:00
1:56 PM,43.0,33.1,68,30.09,10.0,Variable,3.5,-,N/A,,Partly Cloudy,0,2013-02-09 21:56:00
2:56 PM,43.0,30.9,62,30.08,10.0,Calm,Calm,-,N/A,,Overcast,0,2013-02-09 22:56:00
3:56 PM,43.0,30.9,62,30.09,10.0,SW,3.5,-,N/A,,Overcast,230,2013-02-09 23:56:00
4:56 PM,42.1,30.9,65,30.11,10.0,ENE,4.6,-,N/A,,Overcast,60,2013-02-10 00:56:00
5:56 PM,39.9,32.0,73,30.13,10.0,Calm,Calm,-,N/A,,Overcast,0,2013-02-10 01:56:00
6:56 PM,41.0,30.0,65,30.14,10.0,Calm,Calm,-,N/A,,Overcast,0,2013-02-10 02:56:00
7:56 PM,39.9,30.0,68,30.16,10.0,East,4.6,-,N/A,,Overcast,100,2013-02-10 03:56:00
8:56 PM,39.9,30.0,68,30.18,10.0,East,3.5,-,N/A,,Overcast,90,2013-02-10 04:56:00
9:56 PM,37.9,30.9,76,30.17,10.0,South,3.5,-,N/A,,Overcast,180,2013-02-10 05:56:00
10:56 PM,37.0,30.0,76,30.18,10.0,Calm,Calm,-,N/A,,Mostly Cloudy,0,2013-02-10 06:56:00
11:56 PM,36.0,30.0,79,30.21,10.0,Calm,Calm,-,N/A,,Overcast,0,2013-02-10 07:56:00